SBBRYZYX KWBCYMYX SOZZMAMX SYZZMAMX TBPBYMYX TNCCYMYX

TNCAYMYX TFFFYMYX TFFRYMYX TTPPYMYX EGZZMNAM

200400 SMJPYMYX

FTSM20 SMJP 200400

TAF SMJP 200400Z 2006/2106 05003KT CAVOK TX35/2018Z TN22/2010Z TEMPO 2009/2011 1500 BR BKN003 FM201200 09014KT 9999 SCT020 TEMPO 2018/2022 VRB12G24KT 4000 TSRA FEW012 FEW018CB SCT025 BECMG 2100/2102 VRB03KT=

 

 

TAF SMZO 200400Z 2006/2106 04003KT CAVOK TX342018Z TN24/2010Z FM201200 09014KT 9999 SCT020 TEMPO 2017/2021 5000 TSRA FEW012 FEW018CB SCT025 BECMG 2100/2102 04003KT=

 

 

TW

OCTOBER 20,2014